Terminal Aerodrome Forecast
Issued by NWS Sterling, VA

Current Version | Previous Version | Text Only | Print | Product List | Glossary Off
Versions: 1 2 3 4 5 6 7 8 9 10 11 12 13 14 15 16 17 18 19 20 21 22 23 24 25 26 27

000
FTUS41 KLWX 260906 AAA
TAFIAD
TAF AMD
KIAD 260906Z 2609/2712 VRB03KT P6SM BKN025 OVC040
     FM261100 15004KT 5SM -DZ BR SCT008 BKN015 OVC040
     FM261500 17008KT P6SM BKN015 OVC040
     FM261800 17010G18KT P6SM BKN025 OVC040
     FM270300 21008KT 5SM -SHRA BKN015 OVC050
     FM270800 30005KT P6SM OVC050=

USA.gov is the U.S. government's official web portal to all federal, state and local government web resources and services.